Alcudia, Spain
Current Conditions -  °F | °C
As of 1:30 AM on Monday 22 Dec 2014 (Local Time) from LEPA Reporting Station
Light Fog Light Fog  
Wind Chill: 41°   Ceiling: Unl
Heat Index: 41°   Visibility: 6mi
Dew Point: 41°   Wind: 2mph
Humidity: 100%   Direction: 30°NNE
Pressure: 30.48"   Gusts: NA
Location:  39.85°N, 3.12°E
Report Text: LEPA 220030Z 03002KT 9000 1000NW R24R/0900U MIFG FEW001 05/05 Q1032 TEMPO 0800 BCFG
Loading
Personal Weather Stations






























Interactive Weather Map New forecast layout! Learn more

10-Day Weather Forecast

Advertisements
Track Severe Weather on mobile